Flight Track Log - Related Links

Times and Time Zones

All times are in EDT time to prevent confusion due to time zone crossing. See the N39RC flight status page for this flight to view local times or setup timezone preferences in your user account.


Time Position Orientation Groundspeed Altitude Reporting Facility
EDT Latitude Longitude Course Direction KTS MPH feet Rate Location/Type
Wed 09:31:40 PM 42.4667 -71.3500 266° West 219 252 2,100  Level KA90
Wed 09:32:40 PM 42.4167 -71.4000 216° Southwest 214 246 4,600 2,323 Climbing KA90
Wed 09:33:44 PM 42.3608 -71.4708 223° Southwest 253 291 6,900 2,081 Climbing Boston Center
Wed 09:34:44 PM 42.3114 -71.5278 220° Southwest 265 305 8,900 2,100 Climbing Boston Center
Wed 09:35:44 PM 42.2828 -71.6150 246° West 252 290 11,100 2,050 Climbing Boston Center
Wed 09:36:44 PM 42.2478 -71.6856 236° Southwest 268 308 13,000 1,700 Climbing Boston Center
Wed 09:37:44 PM 42.1983 -71.7900 237° Southwest 283 326 14,500 750 Climbing Boston Center
Wed 09:38:44 PM 42.1636 -71.8828 243° Southwest 300 345 14,500  Level Boston Center
Wed 09:39:44 PM 42.1139 -71.9978 240° Southwest 323 372 14,500  Level Boston Center
Wed 09:40:44 PM 42.0769 -72.0933 243° Southwest 323 372 14,500  Level Boston Center
Wed 09:41:44 PM 42.0314 -72.2053 241° Southwest 328 377 14,500  Level Boston Center
Wed 09:42:44 PM 41.9981 -72.2947 243° Southwest 315 362 14,500  Level Boston Center
Wed 09:43:44 PM 41.9544 -72.4039 242° Southwest 309 356 14,500  Level Boston Center
Wed 09:44:44 PM 41.9189 -72.4931 242° Southwest 309 356 14,500  Level Boston Center
Wed 09:45:44 PM 41.8731 -72.5989 240° Southwest 309 356 14,500  Level Boston Center
Wed 09:46:44 PM 41.8311 -72.7019 241° Southwest 309 356 14,500  Level Boston Center
Wed 09:47:44 PM 41.7914 -72.8019 242° Southwest 309 356 14,500  Level Boston Center
Wed 09:48:44 PM 41.7492 -72.9047 241° Southwest 309 356 14,500  Level Boston Center
Wed 09:49:44 PM 41.7069 -73.0072 241° Southwest 309 356 14,500  Level Boston Center
Wed 09:50:44 PM 41.6647 -73.1069 240° Southwest 309 356 14,500  Level Boston Center
Wed 09:51:44 PM 41.6247 -73.2067 242° Southwest 309 356 14,500  Level Boston Center
Wed 09:52:56 PM 41.5800 -73.3142 241° Southwest 309 356 14,500  Level Boston Center
Wed 09:53:56 PM 41.5311 -73.4244 239° Southwest 309 356 14,500  Level Boston Center
Wed 09:54:56 PM 41.4908 -73.5236 242° Southwest 309 356 14,500  Level Boston Center
Wed 09:55:56 PM 41.4481 -73.6225 240° Southwest 309 356 14,500  Level Boston Center
Wed 09:56:56 PM 41.4053 -73.7214 240° Southwest 309 356 14,500  Level Boston Center
Wed 09:57:59 PM 41.3667 -73.8167 242° Southwest 307 353 14,500  Level New York TRACON
Wed 09:58:59 PM 41.3167 -73.9167 236° Southwest 312 359 14,500  Level New York TRACON
Wed 09:59:59 PM 41.2833 -74.0167 246° West 315 362 14,500  Level New York TRACON
Wed 10:00:59 PM 41.2333 -74.1167 236° Southwest 314 361 14,500  Level New York TRACON
Wed 10:01:59 PM 41.2000 -74.2167 246° West 314 361 14,500  Level New York TRACON
Wed 10:02:59 PM 41.1500 -74.3167 236° Southwest 308 354 14,500  Level New York TRACON
Wed 10:03:59 PM 41.1000 -74.4167 236° Southwest 309 356 14,500  Level New York TRACON
Wed 10:04:59 PM 41.0667 -74.5167 246° West 312 359 14,500 -250 Level New York TRACON
Wed 10:05:59 PM 41.0167 -74.6167 236° Southwest 307 353 14,000 -1,474 Descending New York TRACON
Wed 10:06:53 PM 40.9833 -74.7000 242° Southwest 286 329 11,700 -2,533 Descending New York TRACON
Wed 10:07:29 PM 40.9653 -74.7528 246° West 274 315 10,200 -2,227 Descending New York Center
Wed 10:08:30 PM 40.9253 -74.8300 236° Southwest 274 315 8,100 -2,016 Descending New York Center
Wed 10:09:31 PM 40.8872 -74.9019 235° Southwest 256 295 6,100 -1,721 Descending New York Center
Wed 10:10:32 PM 40.8572 -74.9853 245° Southwest 234 269 4,600 -1,008 Descending New York Center
Wed 10:11:30 PM 40.8258 -75.0492 237° Southwest 204 235 4,100 -559 Descending New York Center
Wed 10:12:30 PM 40.8003 -75.1186 244° Southwest 204 235 3,500 -303 Descending New York Center
Wed 10:13:29 PM 40.7792 -75.1831 247° West 204 235 3,500 101 Level New York Center
Wed 10:14:29 PM 40.7858 -75.1700 56° Northeast 204 235 3,700 -298 Climbing New York Center
Wed 10:15:30 PM 40.7858 -75.1700 360° North 204 235 2,900 -893 Descending New York Center
Wed 10:16:30 PM 40.7081 -75.3511 241° Southwest 477 549 1,900 -850 Descending New York Center
Wed 10:17:30 PM 40.6861 -75.3850 230° Southwest 284 327 1,200 -700 Descending New York Center
Wed 10:19:00 PM 40.6500 -75.4333 237° Southwest  Level FlightAware Approximate

Login

Don't have an account? Register now (free) for customized features, flight alerts, and more!